Time;durP1;ratioP1;P1;durP2;ratioP2;P2;SDS_P1;SDS_P2;PMS_P1;PMS_P2;Temp;Humidity;BMP_temperature;BMP_pressure;BME280_temperature;BME280_humidity;BME280_pressure;Samples;Min_cycle;Max_cycle;Signal;HPM_P1;HPM_P2
2023/10/27 00:01:21;998940.00;3.33;1730.59;119819.00;0.40;207.77;;;;;16.80;1.00;;;;;;2272357;61;1070;-88
2023/10/27 00:03:51;803086.00;2.68;1386.51;100703.00;0.34;174.79;;;;;16.80;1.00;;;;;;2272395;61;1356;-89
2023/10/27 00:06:18;909950.00;3.03;1573.60;126472.00;0.42;219.25;;;;;16.80;1.00;;;;;;2272305;61;1430;-90
2023/10/27 00:08:45;698567.00;2.33;1204.75;85188.00;0.28;148.00;;;;;17.00;1.00;;;;;;2272192;61;1737;-89
2023/10/27 00:11:12;882749.00;2.94;1525.84;101810.00;0.34;176.70;;;;;16.80;1.00;;;;;;2272255;61;1478;-89
2023/10/27 00:13:39;990331.00;3.30;1715.35;119625.00;0.40;207.44;;;;;16.80;1.00;;;;;;2272126;61;1503;-87
2023/10/27 00:16:10;909200.00;3.03;1572.28;82054.00;0.27;142.59;;;;;16.80;1.00;;;;;;2272247;61;1427;-87
2023/10/27 00:18:37;883560.00;2.95;1527.26;93355.00;0.31;162.10;;;;;16.60;1.00;;;;;;2272208;61;1998;-88
2023/10/27 00:21:09;862753.00;2.88;1490.79;138697.00;0.46;240.32;;;;;16.70;1.00;;;;;;2272239;61;1555;-88
2023/10/27 00:23:36;594395.00;1.98;1024.54;10646.00;0.04;19.07;;;;;16.60;1.00;;;;;;2282710;39;3692;-88
2023/10/27 00:26:06;848556.00;2.83;1465.94;43541.00;0.15;76.01;;;;;16.60;1.00;;;;;;2293476;39;3564;-87
2023/10/27 00:28:33;617772.00;2.06;1064.92;0.00;0.00;0.62;;;;;16.60;1.00;;;;;;2280204;61;1034;-88
2023/10/27 00:31:00;1023634.00;3.41;1774.38;104870.00;0.35;181.98;;;;;16.60;1.00;;;;;;2280274;61;938;-87
2023/10/27 00:33:27;872259.00;2.91;1507.45;28289.00;0.09;49.62;;;;;16.70;1.00;;;;;;2280116;61;1347;-87
2023/10/27 00:35:55;863996.00;2.88;1492.97;77927.00;0.26;135.46;;;;;16.50;1.00;;;;;;2280232;61;1454;-88
2023/10/27 00:38:24;962728.00;3.21;1666.57;27170.00;0.09;47.68;;;;;16.20;1.00;;;;;;2285875;40;3621;-89
2023/10/27 00:40:54;729809.00;2.43;1258.97;0.00;0.00;0.62;;;;;16.20;1.00;;;;;;2276185;61;2279;-89
2023/10/27 00:43:21;495121.00;1.65;853.42;5091.00;0.02;9.44;;;;;16.30;1.00;;;;;;2276199;61;1278;-87
2023/10/27 00:45:50;780817.00;2.60;1347.69;55352.00;0.18;96.44;;;;;16.50;1.00;;;;;;2287727;56;3728;-86
2023/10/27 00:48:17;824855.00;2.75;1424.51;29671.00;0.10;52.01;;;;;16.30;1.00;;;;;;2280100;61;1615;-89
2023/10/27 00:50:45;712233.00;2.37;1228.46;41710.00;0.14;72.85;;;;;16.20;1.00;;;;;;2280211;61;915;-88
2023/10/27 00:53:14;864903.00;2.88;1494.56;111562.00;0.37;193.53;;;;;16.10;1.00;;;;;;2279965;61;1759;-89
2023/10/27 00:55:43;662548.00;2.21;1142.35;22105.00;0.07;38.92;;;;;16.10;1.00;;;;;;2280036;61;1420;-88
2023/10/27 00:58:12;271131.00;0.90;468.29;8557.00;0.03;15.45;;;;;16.20;1.10;;;;;;2285283;40;3740;-87
2023/10/27 01:03:07;1430131.00;4.77;2512.32;51346.00;0.17;89.51;;;;;16.30;1.00;;;;;;2285212;39;3515;-89
2023/10/27 01:05:34;627160.00;2.09;1081.14;33819.00;0.11;59.19;;;;;16.40;1.00;;;;;;2281069;55;3759;-88
2023/10/27 01:13:07;967169.00;3.22;1674.41;40047.00;0.13;69.97;;;;;16.20;1.00;;;;;;2273733;61;1424;-88
2023/10/27 01:23:10;695348.00;2.32;1199.17;0.00;0.00;0.62;;;;;16.50;1.00;;;;;;2273478;61;1545;-88
2023/10/27 01:25:40;200124.00;0.67;346.14;0.00;0.00;0.62;;;;;16.60;1.00;;;;;;2293185;55;3726;-90
2023/10/27 01:30:38;356659.00;1.19;615.31;0.00;0.00;0.62;;;;;16.70;1.00;;;;;;2273522;61;1352;-87
2023/10/27 01:35:35;434197.00;1.45;748.60;0.00;0.00;0.62;;;;;16.30;1.00;;;;;;2279905;55;3657;-90
2023/10/27 01:40:40;337909.00;1.13;583.08;0.00;0.00;0.62;;;;;16.60;1.00;;;;;;2277570;61;1368;-90
2023/10/27 01:53:13;391347.00;1.30;674.93;0.00;0.00;0.62;;;;;16.30;1.00;;;;;;2274220;61;1348;-89
2023/10/27 01:55:41;126851.00;0.42;219.90;0.00;0.00;0.62;;;;;16.20;1.00;;;;;;2272490;61;916;-89
2023/10/27 02:03:07;299259.00;1.00;516.65;0.00;0.00;0.62;;;;;15.30;1.00;;;;;;2273263;61;1383;-89
2023/10/27 02:08:04;389684.00;1.30;672.07;0.00;0.00;0.62;;;;;15.60;1.00;;;;;;2279386;55;3674;-89
2023/10/27 02:13:02;531759.00;1.77;916.52;0.00;0.00;0.62;;;;;15.80;1.00;;;;;;2277410;61;1413;-89
2023/10/27 02:25:31;336713.00;1.12;581.02;0.00;0.00;0.62;;;;;15.70;1.00;;;;;;2273177;61;1388;-89
2023/10/27 02:30:28;495595.00;1.65;854.24;0.00;0.00;0.62;;;;;15.80;1.00;;;;;;2273213;61;1402;-91
2023/10/27 02:35:25;344869.00;1.15;595.04;0.00;0.00;0.62;;;;;16.10;1.00;;;;;;2273163;61;1420;-91
2023/10/27 02:42:49;290661.00;0.97;501.87;0.00;0.00;0.62;;;;;16.00;1.00;;;;;;2273650;61;1471;-88
2023/10/27 02:45:16;198350.00;0.66;343.08;0.00;0.00;0.62;;;;;16.10;1.00;;;;;;2271538;61;1657;-88
2023/10/27 02:52:45;372813.00;1.24;643.07;0.00;0.00;0.62;;;;;16.40;1.00;;;;;;2273338;61;1406;-89
2023/10/27 03:05:14;674331.00;2.25;1162.75;0.00;0.00;0.62;;;;;16.40;1.00;;;;;;2287185;56;3832;-89
2023/10/27 03:10:12;708345.00;2.36;1221.71;35023.00;0.12;61.28;;;;;16.50;1.00;;;;;;2294949;56;3616;-89
2023/10/27 03:15:09;650436.00;2.17;1121.39;0.00;0.00;0.62;;;;;16.40;1.00;;;;;;1788896;56;3546;-89
2023/10/27 04:31:12;356290.00;1.19;614.67;0.00;0.00;0.62;;;;;16.10;1.00;;;;;;2286460;39;3503;-89
2023/10/27 04:33:43;173793.00;0.58;300.80;0.00;0.00;0.62;;;;;15.90;1.00;;;;;;2281625;55;3782;-91
2023/10/27 04:46:17;236572.00;0.79;408.85;0.00;0.00;0.62;;;;;16.30;1.00;;;;;;2281596;39;3507;-89
2023/10/27 04:48:44;292425.00;0.97;504.90;47230.00;0.16;82.40;;;;;16.30;1.00;;;;;;2280406;61;1670;-89
2023/10/27 04:51:11;95533.00;0.32;165.86;0.00;0.00;0.62;;;;;16.50;1.00;;;;;;2280263;61;1577;-89
2023/10/27 04:56:11;301567.00;1.01;520.61;0.00;0.00;0.62;;;;;16.10;1.00;;;;;;2274179;61;1250;-88
2023/10/27 05:01:08;133942.00;0.45;232.13;0.00;0.00;0.62;;;;;16.00;1.00;;;;;;2274133;61;1428;-87
2023/10/27 05:03:38;13131.00;0.04;23.37;0.00;0.00;0.62;;;;;16.00;1.00;;;;;;2272368;61;1381;-86
2023/10/27 05:08:35;1496421.00;4.99;2636.39;99257.00;0.33;172.29;;;;;16.30;1.00;;;;;;2278348;61;1312;-88
2023/10/27 05:11:03;42131.00;0.14;73.58;0.00;0.00;0.62;;;;;16.20;1.00;;;;;;2277004;61;840;-90
2023/10/27 05:13:30;1365348.00;4.55;2392.21;28271.00;0.09;49.59;;;;;16.30;1.00;;;;;;2272919;61;1365;-89
2023/10/27 05:18:30;124957.00;0.42;216.63;0.00;0.00;0.62;;;;;16.20;1.00;;;;;;2315106;40;3466;-88
2023/10/27 05:23:34;61161.00;0.20;106.48;0.00;0.00;0.62;;;;;16.20;1.00;;;;;;1310834;40;3205;-88
2023/10/27 05:31:00;134122.00;0.45;232.44;0.00;0.00;0.62;;;;;16.50;1.00;;;;;;2273608;61;1235;-87
2023/10/27 05:33:27;0.00;0.00;0.62;0.00;0.00;0.62;;;;;16.50;1.00;;;;;;2272276;61;1370;-87
2023/10/27 05:35:54;532497.00;1.77;917.79;79005.00;0.26;137.32;;;;;16.50;1.00;;;;;;2272307;61;970;-87
2023/10/27 05:38:21;154208.00;0.51;267.06;0.00;0.00;0.62;;;;;16.10;1.00;;;;;;2272193;61;1914;-88
2023/10/27 05:40:53;48631.00;0.16;84.82;0.00;0.00;0.62;;;;;15.90;1.00;;;;;;2272357;61;914;-86
2023/10/27 05:43:20;103282.00;0.34;179.24;0.00;0.00;0.62;;;;;15.80;1.00;;;;;;2272308;61;1335;-89
2023/10/27 05:45:47;147126.00;0.49;254.85;0.00;0.00;0.62;;;;;15.30;1.00;;;;;;2272224;61;922;-88
2023/10/27 05:48:14;197134.00;0.66;340.99;73193.00;0.24;127.28;;;;;15.10;1.00;;;;;;2272301;61;1138;-89
2023/10/27 05:50:41;120559.00;0.40;209.05;0.00;0.00;0.62;;;;;14.90;1.00;;;;;;2272196;61;1517;-89
2023/10/27 05:53:07;380922.00;1.27;657.01;18811.00;0.06;33.21;;;;;14.80;1.40;;;;;;2272033;61;1430;-88
2023/10/27 05:55:34;855220.00;2.85;1477.60;95884.00;0.32;166.47;;;;;14.60;2.20;;;;;;2272195;61;1079;-89
2023/10/27 05:58:04;1253594.00;4.18;2187.42;117386.00;0.39;203.57;;;;;14.50;2.10;;;;;;2272193;61;1459;-89
2023/10/27 06:00:31;1074842.00;3.58;1865.49;28968.00;0.10;50.80;;;;;14.50;2.10;;;;;;2272073;61;2039;-88
2023/10/27 06:02:57;1148487.00;3.83;1997.36;54577.00;0.18;95.10;;;;;14.80;2.00;;;;;;2272243;61;1348;-88
2023/10/27 06:05:24;1036247.00;3.45;1796.78;53275.00;0.18;92.85;;;;;14.70;1.70;;;;;;2272202;61;1123;-88
2023/10/27 06:07:51;1421174.00;4.74;2495.65;152490.00;0.51;264.10;;;;;14.60;2.00;;;;;;2272245;61;1736;-87
2023/10/27 06:10:19;840323.00;2.80;1451.54;160592.00;0.54;278.06;;;;;14.70;1.70;;;;;;2272230;61;1099;-87
2023/10/27 06:12:45;416002.00;1.39;717.32;81724.00;0.27;142.02;;;;;14.50;2.10;;;;;;2272083;61;1496;-88
2023/10/27 06:15:14;322144.00;1.07;555.98;84376.00;0.28;146.60;;;;;14.60;2.20;;;;;;2272245;61;1021;-89
2023/10/27 06:17:41;282389.00;0.94;487.64;85427.00;0.28;148.41;;;;;14.40;2.10;;;;;;2272206;61;1009;-89
2023/10/27 06:20:08;248440.00;0.83;429.27;80691.00;0.27;140.23;;;;;14.40;3.40;;;;;;2272154;61;2000;-88
2023/10/27 06:22:35;225780.00;0.75;390.29;68941.00;0.23;119.93;;;;;14.80;5.90;;;;;;2272096;61;1354;-87
2023/10/27 06:25:03;212798.00;0.71;367.95;87079.00;0.29;151.26;;;;;15.50;1.50;;;;;;2272129;61;1031;-88
2023/10/27 06:27:30;310806.00;1.04;536.49;86119.00;0.29;149.61;;;;;15.60;1.00;;;;;;2272171;61;1036;-88
2023/10/27 06:29:57;330854.00;1.10;570.95;80551.00;0.27;139.99;;;;;15.70;1.90;;;;;;2272202;61;1110;-87
2023/10/27 06:32:26;171498.00;0.57;296.85;89996.00;0.30;156.30;;;;;15.90;1.00;;;;;;2272724;61;1386;-88
2023/10/27 06:34:52;167872.00;0.56;290.60;80370.00;0.27;139.68;;;;;15.70;1.00;;;;;;2272883;61;1074;-88
2023/10/27 06:37:19;126474.00;0.42;219.25;85246.00;0.28;148.10;;;;;15.70;1.00;;;;;;2272804;61;1680;-88
2023/10/27 06:39:46;117009352.00;390.03;64891284.00;0.00;0.00;0.62;;;;;15.60;1.00;;;;;;2272766;61;1923;-88
2023/10/27 06:42:13;121229.00;0.40;210.20;0.00;0.00;0.62;;;;;15.50;1.00;;;;;;2272794;61;1263;-88
2023/10/27 06:44:40;71611.00;0.24;124.54;0.00;0.00;0.62;;;;;15.70;1.00;;;;;;2272680;61;1687;-90
2023/10/27 06:47:07;37081.00;0.12;64.84;0.00;0.00;0.62;;;;;15.40;1.00;;;;;;2272808;61;1025;-88
2023/10/27 06:49:35;41684.00;0.14;72.80;0.00;0.00;0.62;;;;;15.00;2.00;;;;;;2272873;61;1027;-88
2023/10/27 06:54:32;463165.00;1.54;798.43;0.00;0.00;0.62;;;;;15.20;2.20;;;;;;2275069;61;1337;-92
2023/10/27 07:09:29;841588.00;2.81;1453.75;0.00;0.00;0.62;;;;;14.20;6.50;;;;;;2513759;55;3539;31
2023/10/27 08:11:50;946936.00;3.16;1638.71;83339.00;0.28;144.80;;;;;15.20;3.40;;;;;;2514637;55;3604;31
2023/10/27 09:19:20;985667.00;3.29;1707.10;0.00;0.00;0.62;;;;;16.30;1.00;;;;;;2440280;40;3503;-88
2023/10/27 09:34:21;1595709.00;5.32;2824.54;18157.00;0.06;32.08;;;;;14.90;1.00;;;;;;2516751;40;3498;31
2023/10/27 10:07:11;405957.00;1.35;700.05;0.00;0.00;0.62;;;;;15.80;1.00;;;;;;2274491;61;1025;-91
2023/10/27 10:12:12;1167567.00;3.89;2031.69;0.00;0.00;0.62;;;;;15.80;1.00;;;;;;2351111;40;3493;-87
2023/10/27 10:14:51;1415913.00;4.72;2485.87;13363.00;0.04;23.78;;;;;15.90;1.00;;;;;;2000405;55;3717;-89
2023/10/27 10:30:12;673939.00;2.25;1162.07;0.00;0.00;0.62;;;;;15.70;1.00;;;;;;2384203;39;3479;31
2023/10/27 11:20:37;500881.00;1.67;863.34;0.00;0.00;0.62;;;;;16.30;1.00;;;;;;2275058;61;1871;-92
2023/10/27 11:40:39;659779.00;2.20;1137.56;0.00;0.00;0.62;;;;;17.10;1.00;;;;;;1979832;56;3598;-88
2023/10/27 13:28:10;710029.00;2.37;1224.63;57726.00;0.19;100.55;;;;;17.40;1.00;;;;;;2274652;61;1012;-88
2023/10/27 13:50:41;541299.00;1.80;932.96;0.00;0.00;0.62;;;;;16.80;1.00;;;;;;2270293;61;992;-90
2023/10/27 13:53:08;59478.00;0.20;103.57;0.00;0.00;0.62;;;;;17.30;1.00;;;;;;2268702;61;1277;-91
2023/10/27 14:15:50;510138.00;1.70;879.28;0.00;0.00;0.62;;;;;17.70;1.00;;;;;;1961638;40;3472;-87
2023/10/27 15:05:59;969389.00;3.23;1678.33;61920.00;0.21;107.80;;;;;16.50;1.00;;;;;;817511;56;3654;-90
2023/10/27 15:53:27;122112.00;0.41;211.73;0.00;0.00;0.62;;;;;16.40;1.00;;;;;;2274304;61;1286;-86
2023/10/27 15:58:24;168099.00;0.56;290.99;0.00;0.00;0.62;;;;;16.70;1.00;;;;;;2275189;61;1157;-90
2023/10/27 16:11:02;249262.00;0.83;430.68;0.00;0.00;0.62;;;;;17.10;1.00;;;;;;654895;59;2246;-88
2023/10/27 16:13:29;32235.00;0.11;56.45;0.00;0.00;0.62;;;;;17.30;1.00;;;;;;2272294;61;2214;-89
2023/10/27 16:15:55;106614.00;0.36;184.99;0.00;0.00;0.62;;;;;17.50;1.00;;;;;;2272432;61;943;-88
2023/10/27 16:18:23;393856.00;1.31;679.24;101500.00;0.34;176.16;;;;;17.50;1.00;;;;;;2272382;61;1078;-90
2023/10/27 16:23:20;377679.00;1.26;651.44;17444.00;0.06;30.84;;;;;17.30;1.00;;;;;;2273918;61;1412;-87
2023/10/27 16:25:47;52045.00;0.17;90.72;0.00;0.00;0.62;;;;;17.10;1.00;;;;;;2272370;61;1102;-88
2023/10/27 16:40:45;187187.00;0.62;323.87;0.00;0.00;0.62;;;;;17.00;1.00;;;;;;2275035;61;1879;-90
2023/10/27 16:43:12;39041.00;0.13;68.23;0.00;0.00;0.62;;;;;16.80;1.00;;;;;;2272993;61;1589;-89
2023/10/27 16:45:39;235239.00;0.78;406.56;0.00;0.00;0.62;;;;;16.40;1.00;;;;;;2273041;61;1706;-89
2023/10/27 16:48:08;0.00;0.00;0.62;0.00;0.00;0.62;;;;;16.20;1.00;;;;;;2272967;61;1669;-89
2023/10/27 16:50:35;70623.00;0.24;122.84;0.00;0.00;0.62;;;;;16.50;1.00;;;;;;2272997;61;1710;-89
2023/10/27 16:53:02;41130.00;0.14;71.84;0.00;0.00;0.62;;;;;16.50;1.00;;;;;;2272868;61;1499;-88
2023/10/27 17:00:33;155944.00;0.52;270.05;0.00;0.00;0.62;;;;;15.90;1.00;;;;;;2275047;61;1946;-90
2023/10/27 17:03:01;81333.00;0.27;141.34;0.00;0.00;0.62;;;;;16.10;1.00;;;;;;2272916;61;1718;-89
2023/10/27 17:08:01;258635.00;0.86;446.80;0.00;0.00;0.62;;;;;16.20;1.00;;;;;;2294526;56;3591;-89
2023/10/27 17:10:31;27657.00;0.09;48.53;0.00;0.00;0.62;;;;;16.40;1.00;;;;;;2280313;61;1685;-89
2023/10/27 17:23:06;259786.00;0.87;448.78;0.00;0.00;0.62;;;;;16.70;1.00;;;;;;2296890;55;3756;-89
2023/10/27 17:55:51;537711.00;1.79;926.78;82818.00;0.28;143.90;;;;;16.60;1.00;;;;;;1577258;40;3395;-88
2023/10/27 18:28:12;910582.00;3.04;1574.71;0.00;0.00;0.62;;;;;16.50;1.00;;;;;;2269727;61;1392;-90
2023/10/27 18:30:40;786684.00;2.62;1357.91;80377.00;0.27;139.69;;;;;16.60;1.00;;;;;;2306886;40;3734;-89
2023/10/27 18:38:13;1214143.00;4.05;2115.81;1995.00;0.01;4.08;;;;;16.70;1.00;;;;;;2279645;39;3426;-90
2023/10/27 18:45:41;1005301.00;3.35;1741.86;139127.00;0.46;241.07;;;;;16.70;1.00;;;;;;2273589;61;1404;-88
2023/10/27 18:58:13;1409776.00;4.70;2474.47;6857.00;0.02;12.50;;;;;15.70;1.00;;;;;;1896007;40;3404;-88
2023/10/27 19:05:40;944802.00;3.15;1634.95;56607.00;0.19;98.61;;;;;15.20;1.00;;;;;;2285497;55;3628;-88
2023/10/27 19:10:37;851564.00;2.84;1471.20;40428.00;0.13;70.63;;;;;15.60;1.00;;;;;;2273380;61;1424;-87
2023/10/27 19:33:02;1150211.00;3.83;2000.46;61079.00;0.20;106.34;;;;;16.40;1.00;;;;;;2273281;61;1347;-87
2023/10/27 19:35:29;530941.00;1.77;915.11;6363.00;0.02;11.65;;;;;16.60;1.00;;;;;;2271603;61;1085;-88
2023/10/27 19:37:56;648975.00;2.16;1118.86;16716.00;0.06;29.58;;;;;16.40;1.00;;;;;;2271547;61;2210;-88
2023/10/27 19:40:24;702298.00;2.34;1211.22;6512.00;0.02;11.91;;;;;16.40;1.00;;;;;;2272010;61;1916;-87
2023/10/27 19:42:52;646075.00;2.15;1113.85;64990.00;0.22;113.10;;;;;16.40;1.00;;;;;;2272368;61;1421;-87
2023/10/27 19:45:19;366126.00;1.22;631.58;22465.00;0.07;39.54;;;;;16.40;1.00;;;;;;2272343;61;1013;-87
2023/10/27 19:47:46;542747.00;1.81;935.46;15649.00;0.05;27.73;;;;;16.40;1.00;;;;;;2272333;61;936;-87
2023/10/27 19:50:14;587107.00;1.96;1011.96;7240.00;0.02;13.17;;;;;16.40;1.00;;;;;;2272323;61;1495;-87
2023/10/27 19:52:41;720928.00;2.40;1243.55;30446.00;0.10;53.36;;;;;16.50;1.00;;;;;;2272189;61;1690;-86
2023/10/27 19:55:14;708002.00;2.36;1221.12;86087.00;0.29;149.55;;;;;16.40;1.00;;;;;;2272381;61;1044;-86
2023/10/27 19:57:42;487604.00;1.63;840.48;32182.00;0.11;56.36;;;;;16.60;1.00;;;;;;2272333;61;1150;-87
2023/10/27 20:00:12;249990.00;0.83;431.93;0.00;0.00;0.62;;;;;16.70;1.00;;;;;;2272281;61;1916;-87
2023/10/27 20:02:40;377484.00;1.26;651.10;517.00;0.00;1.52;;;;;16.90;1.00;;;;;;2272328;61;1392;-87
2023/10/27 20:05:09;327865.00;1.09;565.82;0.00;0.00;0.62;;;;;16.70;1.00;;;;;;2272352;61;1503;-89
2023/10/27 20:07:37;210286.00;0.70;363.63;0.00;0.00;0.62;;;;;16.60;1.00;;;;;;2272295;61;1095;-87
2023/10/27 20:10:05;422750.00;1.41;728.92;8421.00;0.03;15.21;;;;;16.60;1.00;;;;;;2272331;61;1039;-88
2023/10/27 20:12:32;374139.00;1.25;645.35;10523.00;0.04;18.86;;;;;16.60;1.00;;;;;;2272224;61;2072;-87
2023/10/27 20:14:59;500614.00;1.67;862.88;0.00;0.00;0.62;;;;;16.60;1.00;;;;;;2272304;61;977;-88
2023/10/27 20:17:27;661674.00;2.21;1140.84;0.00;0.00;0.62;;;;;16.60;1.00;;;;;;2272307;61;1061;-88
2023/10/27 20:19:54;587530.00;1.96;1012.69;42992.00;0.14;75.06;;;;;16.70;1.00;;;;;;2272256;61;1788;-85
2023/10/27 20:22:24;585091.00;1.95;1008.48;0.00;0.00;0.62;;;;;16.70;1.00;;;;;;2272181;61;2040;-88
2023/10/27 20:24:52;403239.00;1.34;695.37;14244.00;0.05;25.30;;;;;16.80;1.00;;;;;;2272359;61;1114;-88
2023/10/27 20:27:19;936732.00;3.12;1620.73;19576.00;0.07;34.54;;;;;16.70;1.00;;;;;;2272292;61;1130;-88
2023/10/27 20:29:45;758630.00;2.53;1309.07;0.00;0.00;0.62;;;;;16.70;1.00;;;;;;2272284;61;2205;-88
2023/10/27 20:32:12;313768.00;1.05;541.59;0.00;0.00;0.62;;;;;16.60;1.00;;;;;;2272145;61;1351;-87
2023/10/27 20:34:39;438846.00;1.46;756.60;0.00;0.00;0.62;;;;;16.80;1.00;;;;;;2272189;61;2174;-87
2023/10/27 20:37:08;364912.00;1.22;629.49;0.00;0.00;0.62;;;;;16.90;1.00;;;;;;2272163;61;1014;-86
2023/10/27 20:39:35;500033.00;1.67;861.88;5911.00;0.02;10.86;;;;;16.80;1.00;;;;;;2272154;61;1311;-87
2023/10/27 20:42:04;364221.00;1.21;628.30;35884.00;0.12;62.77;;;;;16.70;1.00;;;;;;2272084;61;2009;-86
2023/10/27 20:44:31;453729.00;1.51;782.20;0.00;0.00;0.62;;;;;16.70;1.00;;;;;;2272193;61;1083;-86
2023/10/27 20:46:58;511466.00;1.70;881.57;0.00;0.00;0.62;;;;;16.50;1.00;;;;;;2272104;61;947;-89
2023/10/27 20:49:25;592987.00;1.98;1022.11;22571.00;0.08;39.72;;;;;16.30;1.00;;;;;;2272186;61;1059;-88
2023/10/27 20:51:51;529149.00;1.76;912.03;30678.00;0.10;53.76;;;;;16.30;1.00;;;;;;2272139;61;1378;-88
2023/10/27 20:54:18;666426.00;2.22;1149.06;42203.00;0.14;73.70;;;;;16.20;1.00;;;;;;2272134;61;1131;-87
2023/10/27 20:56:45;435172.00;1.45;750.28;31726.00;0.11;55.57;;;;;16.10;1.00;;;;;;2272123;61;1107;-88
2023/10/27 20:59:13;406351.00;1.35;700.72;0.00;0.00;0.62;;;;;16.20;1.00;;;;;;2272109;61;1421;-88
2023/10/27 21:01:40;498654.00;1.66;859.51;56229.00;0.19;97.96;;;;;16.40;1.00;;;;;;2272046;61;2000;-89
2023/10/27 21:04:07;457226.00;1.52;788.21;31185.00;0.10;54.63;;;;;16.50;1.00;;;;;;2272044;61;1718;-88
2023/10/27 21:06:34;333533.00;1.11;575.56;0.00;0.00;0.62;;;;;16.50;1.00;;;;;;2272059;61;1522;-87
2023/10/27 21:09:01;417543.00;1.39;719.97;11082.00;0.04;19.82;;;;;16.40;1.00;;;;;;2272129;61;1031;-88
2023/10/27 21:11:28;524976.00;1.75;904.84;0.00;0.00;0.62;;;;;16.50;1.00;;;;;;2272090;61;1028;-89
2023/10/27 21:13:55;581650.00;1.94;1002.55;13087.00;0.04;23.30;;;;;16.50;1.00;;;;;;2272132;61;1385;-89
2023/10/27 21:16:23;445279.00;1.48;767.66;0.00;0.00;0.62;;;;;16.40;1.00;;;;;;2272182;61;902;-88
2023/10/27 21:18:50;425924.00;1.42;734.38;0.00;0.00;0.62;;;;;16.40;1.00;;;;;;2272151;61;2337;-89
2023/10/27 21:21:17;759558.00;2.53;1310.68;77468.00;0.26;134.66;;;;;16.40;1.00;;;;;;2272121;61;1916;-89
2023/10/27 21:23:43;491186.00;1.64;846.65;51741.00;0.17;90.20;;;;;16.20;1.00;;;;;;2272239;61;1301;-89
2023/10/27 21:26:10;595696.00;1.99;1026.79;0.00;0.00;0.62;;;;;15.80;1.00;;;;;;2272229;61;1058;-87
2023/10/27 21:28:37;558097.00;1.86;961.92;33146.00;0.11;58.03;;;;;15.80;1.00;;;;;;2272275;61;766;-88
2023/10/27 21:31:04;499277.00;1.66;860.58;0.00;0.00;0.62;;;;;15.70;1.00;;;;;;2272131;61;1113;-88
2023/10/27 21:33:33;278099.00;0.93;480.27;0.00;0.00;0.62;;;;;15.70;1.00;;;;;;2272084;61;1432;-88
2023/10/27 21:35:59;454198.00;1.51;783.00;8055.00;0.03;14.58;;;;;15.90;1.00;;;;;;2272136;61;1110;-89
2023/10/27 21:38:26;421547.00;1.41;726.85;0.00;0.00;0.62;;;;;16.10;1.00;;;;;;2272151;61;1098;-88
2023/10/27 21:40:53;345027.00;1.15;595.31;0.00;0.00;0.62;;;;;16.20;1.00;;;;;;2272160;61;2006;-88
2023/10/27 21:43:20;681807.00;2.27;1175.70;9646.00;0.03;17.34;;;;;16.30;1.00;;;;;;2272085;61;1608;-88
2023/10/27 21:45:47;490234.00;1.63;845.01;61889.00;0.21;107.74;;;;;16.40;1.00;;;;;;2272153;61;1047;-88
2023/10/27 21:48:15;550861.00;1.84;949.44;52977.00;0.18;92.33;;;;;15.80;1.00;;;;;;2272104;61;1144;-86
2023/10/27 21:50:43;354708.00;1.18;611.95;0.00;0.00;0.62;;;;;15.10;1.00;;;;;;2272131;61;2270;-88
2023/10/27 21:53:10;512410.00;1.71;883.19;0.00;0.00;0.62;;;;;14.40;1.00;;;;;;2272055;61;1530;-89
2023/10/27 21:55:37;768259.00;2.56;1325.82;114740.00;0.38;199.01;;;;;14.30;1.00;;;;;;2272116;61;1113;-87
2023/10/27 21:58:04;650342.00;2.17;1121.23;83055.00;0.28;144.31;;;;;14.30;1.00;;;;;;2272078;61;1029;-88
2023/10/27 22:00:36;658485.00;2.19;1135.32;120274.00;0.40;208.56;;;;;14.20;1.00;;;;;;2272167;61;995;-88
2023/10/27 22:03:07;555815.00;1.85;957.98;0.00;0.00;0.62;;;;;14.40;1.00;;;;;;2271915;61;1506;-87
2023/10/27 22:05:34;925869.00;3.09;1601.60;36954.00;0.12;64.62;;;;;14.00;1.00;;;;;;2272097;61;1087;-89
2023/10/27 22:08:03;500714.00;1.67;863.05;11303.00;0.04;20.21;;;;;14.20;1.00;;;;;;2272041;61;1138;-88
2023/10/27 22:10:30;244579.00;0.82;422.63;14783.00;0.05;26.23;;;;;14.10;1.00;;;;;;2272001;61;1479;-86
2023/10/27 22:12:57;544617.00;1.82;938.68;0.00;0.00;0.62;;;;;14.10;1.00;;;;;;2271975;61;1374;-87
2023/10/27 22:15:24;280175.00;0.93;483.84;0.00;0.00;0.62;;;;;13.80;1.00;;;;;;2271991;61;1122;-88
2023/10/27 22:17:51;632986.00;2.11;1091.21;28937.00;0.10;50.74;;;;;13.80;1.00;;;;;;2271974;61;1114;-88
2023/10/27 22:20:18;490110.00;1.63;844.80;66784.00;0.22;116.20;;;;;14.20;1.00;;;;;;2271954;61;1076;-87
2023/10/27 22:22:45;290898.00;0.97;502.27;0.00;0.00;0.62;;;;;14.50;1.00;;;;;;2271890;61;1920;-88
2023/10/27 22:25:13;550593.00;1.84;948.98;0.00;0.00;0.62;;;;;14.40;1.00;;;;;;2271875;61;1067;-87
2023/10/27 22:27:40;564358.00;1.88;972.72;36968.00;0.12;64.64;;;;;14.60;1.00;;;;;;2271834;61;1573;-88
2023/10/27 22:30:08;692776.00;2.31;1194.71;53921.00;0.18;93.97;;;;;14.60;1.00;;;;;;2271904;61;1105;-88
2023/10/27 22:32:35;471567.00;1.57;812.89;24259.00;0.08;42.64;;;;;14.80;1.00;;;;;;2271767;61;1264;-88
2023/10/27 22:35:02;706298.00;2.35;1218.16;44856.00;0.15;78.29;;;;;15.00;1.00;;;;;;2271920;61;989;-87
2023/10/27 22:37:30;885513.00;2.95;1530.69;41685.00;0.14;72.80;;;;;15.20;1.00;;;;;;2271870;61;1079;-87
2023/10/27 22:39:57;478368.00;1.59;824.59;0.00;0.00;0.62;;;;;15.30;1.00;;;;;;2271824;61;1498;-88
2023/10/27 22:42:25;440536.00;1.47;759.50;8571.00;0.03;15.47;;;;;15.20;1.00;;;;;;2271732;61;1998;-89
2023/10/27 22:44:52;473270.00;1.58;815.82;5246.00;0.02;9.71;;;;;15.10;1.00;;;;;;2271555;61;957;-89
2023/10/27 22:47:21;491566.00;1.64;847.30;4027.00;0.01;7.60;;;;;14.80;1.00;;;;;;2271864;61;2087;-88
2023/10/27 22:54:50;534768.00;1.78;921.71;0.00;0.00;0.62;;;;;14.70;1.00;;;;;;2273229;61;1374;-89
2023/10/27 22:57:17;567895.00;1.89;978.82;0.00;0.00;0.62;;;;;14.50;1.00;;;;;;2277065;39;3687;-88
2023/10/27 22:59:48;326052.00;1.09;562.70;0.00;0.00;0.62;;;;;14.30;1.00;;;;;;2279881;61;1719;-87
2023/10/27 23:02:15;252573.00;0.84;436.38;0.00;0.00;0.62;;;;;14.30;1.00;;;;;;2279044;61;1994;-87
2023/10/27 23:04:42;272662.00;0.91;470.92;12865.00;0.04;22.91;;;;;14.50;1.00;;;;;;2275788;61;1774;-86
2023/10/27 23:07:09;352887.00;1.18;608.82;16020.00;0.05;28.38;;;;;14.30;1.00;;;;;;2275803;61;1097;-89
2023/10/27 23:09:36;363743.00;1.21;627.48;30634.00;0.10;53.68;;;;;14.20;1.00;;;;;;2275803;61;1741;-87
2023/10/27 23:12:04;451004.00;1.50;777.51;0.00;0.00;0.62;;;;;14.20;1.00;;;;;;2275859;61;1356;-88
2023/10/27 23:14:31;241979.00;0.81;418.16;0.00;0.00;0.62;;;;;14.40;1.00;;;;;;2276202;61;909;-88
2023/10/27 23:19:31;467398.00;1.56;805.71;20777.00;0.07;36.62;;;;;14.10;1.00;;;;;;2274436;61;1424;-88
2023/10/27 23:21:58;284965.00;0.95;492.07;0.00;0.00;0.62;;;;;14.00;1.00;;;;;;2272426;61;2000;-88
2023/10/27 23:24:25;420881.00;1.40;725.71;29371.00;0.10;51.49;;;;;13.70;1.00;;;;;;2283871;56;3751;-87
2023/10/27 23:26:52;311713.00;1.04;538.05;30182.00;0.10;52.90;;;;;13.60;1.00;;;;;;2276323;61;1684;-86
2023/10/27 23:29:19;303129.00;1.01;523.30;17491.00;0.06;30.93;;;;;13.40;1.00;;;;;;2276467;61;1105;-86
2023/10/27 23:31:46;312811.00;1.04;539.94;19409.00;0.06;34.25;;;;;13.50;1.00;;;;;;2276441;61;1253;-87
2023/10/27 23:34:13;316773.00;1.06;546.75;0.00;0.00;0.62;;;;;13.70;1.00;;;;;;2278920;55;3728;-87
2023/10/27 23:39:16;530534.00;1.77;914.41;12095.00;0.04;21.58;;;;;14.20;1.00;;;;;;2299963;55;3625;-88
2023/10/27 23:51:49;169620.00;0.57;293.61;0.00;0.00;0.62;;;;;14.90;1.00;;;;;;2323143;40;3576;-89
